createdAt,value
2022-09-20T00:04:54.438Z,12.72
2022-09-20T00:09:57.370Z,12.73
2022-09-20T00:14:58.948Z,12.65
2022-09-20T00:20:00.605Z,12.63
2022-09-20T00:25:02.264Z,12.55
2022-09-20T00:30:04.166Z,12.54
2022-09-20T00:35:11.013Z,12.56
2022-09-20T00:40:17.169Z,12.61
2022-09-20T00:45:27.665Z,12.66
2022-09-20T00:50:35.207Z,12.60
2022-09-20T00:55:42.752Z,12.49
2022-09-20T01:00:46.213Z,12.45
2022-09-20T01:05:47.951Z,12.58
2022-09-20T01:10:49.756Z,12.52
2022-09-20T01:15:52.068Z,12.43
2022-09-20T01:20:54.722Z,12.46
2022-09-20T01:26:14.871Z,12.53
2022-09-20T01:31:25.632Z,12.45
2022-09-20T01:36:38.026Z,12.42
2022-09-20T01:41:53.711Z,12.53
2022-09-20T01:47:06.968Z,12.38
2022-09-20T01:52:45.602Z,12.42
2022-09-20T01:57:50.263Z,12.30
2022-09-20T02:03:00.722Z,12.15
2022-09-20T02:08:14.462Z,12.09
2022-09-20T02:13:37.626Z,12.18
2022-09-20T02:18:48.143Z,12.19
2022-09-20T02:24:21.930Z,12.17
2022-09-20T02:29:38.772Z,12.17
2022-09-20T02:34:55.807Z,12.17
2022-09-20T02:40:39.687Z,12.24
2022-09-20T02:45:53.371Z,12.29
2022-09-20T02:51:26.102Z,12.24
2022-09-20T02:56:38.442Z,12.19
2022-09-20T03:02:04.552Z,12.19
2022-09-20T03:07:32.342Z,12.25
2022-09-20T03:13:09.696Z,12.29
2022-09-20T03:18:16.264Z,12.22
2022-09-20T03:23:52.156Z,12.26
2022-09-20T03:29:02.104Z,12.24
2022-09-20T03:34:16.613Z,12.19
2022-09-20T03:39:31.834Z,12.22
2022-09-20T03:44:39.661Z,12.24
2022-09-20T03:50:01.115Z,12.28
2022-09-20T03:55:42.640Z,12.26
2022-09-20T04:01:09.417Z,12.17
2022-09-20T04:06:40.976Z,12.15
2022-09-20T04:12:07.457Z,12.13
2022-09-20T04:17:33.351Z,12.19
2022-09-20T04:22:35.263Z,12.14
2022-09-20T04:27:43.977Z,12.06
2022-09-20T04:32:56.448Z,12.05
2022-09-20T04:38:06.184Z,12.11
2022-09-20T04:43:17.510Z,12.15
2022-09-20T04:48:31.495Z,12.08
2022-09-20T04:54:05.423Z,12.02
2022-09-20T04:59:10.225Z,11.95
2022-09-20T05:04:49.366Z,11.89
2022-09-20T05:10:22.413Z,11.93
2022-09-20T05:15:36.336Z,11.90
2022-09-20T05:20:54.473Z,11.77
2022-09-20T05:26:07.267Z,11.67
2022-09-20T05:31:16.610Z,11.66
2022-09-20T05:36:43.327Z,11.52
2022-09-20T05:41:57.386Z,11.44
2022-09-20T05:47:20.857Z,11.63
2022-09-20T05:52:52.794Z,11.65
2022-09-20T05:58:12.499Z,11.60
2022-09-20T06:03:36.185Z,11.56
2022-09-20T06:08:46.664Z,11.40
2022-09-20T06:14:29.664Z,11.41
2022-09-20T06:19:37.218Z,11.49
2022-09-20T06:25:01.063Z,11.56
2022-09-20T06:30:07.595Z,11.55
2022-09-20T06:35:09.538Z,11.60
2022-09-20T06:40:46.222Z,11.66
2022-09-20T06:45:48.574Z,11.69
2022-09-20T06:50:52.404Z,11.75
2022-09-20T06:55:54.049Z,11.82
2022-09-20T07:00:55.921Z,11.89
2022-09-20T07:06:02.215Z,11.89
2022-09-20T07:11:06.443Z,11.93
2022-09-20T07:16:10.621Z,11.74
2022-09-20T07:21:17.197Z,11.90
2022-09-20T07:26:25.828Z,11.96
2022-09-20T07:31:29.483Z,11.96
2022-09-20T07:36:34.636Z,11.98
2022-09-20T07:41:38.875Z,12.09
2022-09-20T07:46:45.520Z,12.15
2022-09-20T07:51:49.316Z,12.20
2022-09-20T07:56:52.314Z,12.20
2022-09-20T08:01:53.974Z,12.26
2022-09-20T08:06:57.553Z,12.34
2022-09-20T08:14:05.449Z,12.37
2022-09-20T08:17:21.848Z,12.44
2022-09-20T08:22:23.447Z,12.84
2022-09-20T08:27:25.412Z,13.09
2022-09-20T08:32:31.627Z,12.96
2022-09-20T08:37:38.984Z,12.87
2022-09-20T08:42:44.788Z,12.84
2022-09-20T08:48:00.507Z,12.80
2022-09-20T08:53:04.981Z,12.79
2022-09-20T08:58:12.027Z,13.21
2022-09-20T09:03:19.392Z,13.58
2022-09-20T09:08:39.405Z,13.89
2022-09-20T09:14:01.380Z,13.79
2022-09-20T09:19:36.809Z,14.33
2022-09-20T09:24:38.454Z,14.64
2022-09-20T09:29:50.670Z,14.24
2022-09-20T09:34:52.417Z,14.02
2022-09-20T09:40:18.632Z,13.98
2022-09-20T09:45:44.196Z,14.22
2022-09-20T09:50:46.782Z,14.12
2022-09-20T09:56:15.519Z,14.13
2022-09-20T10:01:33.229Z,14.08
2022-09-20T10:06:52.346Z,14.00
2022-09-20T10:12:36.058Z,14.04
2022-09-20T10:18:02.664Z,14.49
2022-09-20T10:23:45.235Z,14.70
2022-09-20T10:29:09.567Z,15.54
2022-09-20T10:34:27.199Z,15.21
2022-09-20T10:39:35.342Z,15.16
2022-09-20T10:44:55.833Z,15.16
2022-09-20T10:50:29.223Z,15.09
2022-09-20T10:55:49.358Z,14.92
2022-09-20T11:01:00.950Z,14.89
2022-09-20T11:06:48.612Z,15.00
2022-09-20T11:11:55.967Z,15.12
2022-09-20T11:17:12.401Z,15.50
2022-09-20T11:22:26.583Z,15.59
2022-09-20T11:27:39.579Z,15.71
2022-09-20T11:32:47.260Z,15.70
2022-09-20T11:38:33.877Z,15.73
2022-09-20T11:43:39.023Z,15.72
2022-09-20T11:48:47.944Z,15.52
2022-09-20T11:53:58.546Z,15.65
2022-09-20T11:59:07.334Z,16.03
2022-09-20T12:04:39.061Z,16.09
2022-09-20T12:09:44.088Z,16.02
2022-09-20T12:14:57.459Z,16.14
2022-09-20T12:19:59.124Z,16.11
2022-09-20T12:25:37.659Z,16.01
2022-09-20T12:30:39.465Z,16.09
2022-09-20T12:35:59.969Z,16.25
2022-09-20T12:41:08.553Z,16.24
2022-09-20T12:46:20.869Z,16.10
2022-09-20T12:51:50.920Z,16.10
2022-09-20T12:56:52.660Z,16.15
2022-09-20T13:01:54.412Z,16.38
2022-09-20T13:07:34.543Z,16.49
2022-09-20T13:12:38.188Z,16.29
2022-09-20T13:17:42.231Z,16.18
2022-09-20T13:22:45.488Z,16.26
2022-09-20T13:28:02.088Z,16.20
2022-09-20T13:33:36.184Z,16.32
2022-09-20T13:38:38.443Z,16.36
2022-09-20T13:43:48.604Z,16.53
2022-09-20T13:48:59.585Z,16.48
2022-09-20T13:54:26.464Z,16.28
2022-09-20T13:59:36.541Z,16.20
2022-09-20T14:04:39.353Z,16.65
2022-09-20T14:09:41.497Z,16.89
2022-09-20T14:14:44.242Z,17.01
2022-09-20T14:19:49.860Z,17.05
2022-09-20T14:25:22.673Z,17.17
2022-09-20T14:30:39.144Z,17.30
2022-09-20T14:35:47.916Z,17.41
2022-09-20T14:40:51.778Z,17.36
2022-09-20T14:45:58.829Z,17.38
2022-09-20T14:51:16.200Z,17.37
2022-09-20T14:56:33.835Z,17.46
2022-09-20T15:01:38.067Z,17.46
2022-09-20T15:06:40.183Z,17.27
2022-09-20T15:11:41.934Z,17.24
2022-09-20T15:16:43.629Z,17.09
2022-09-20T15:21:45.258Z,17.15
2022-09-20T15:26:47.583Z,17.05
2022-09-20T15:31:49.381Z,17.09
2022-09-20T15:36:51.181Z,16.99
2022-09-20T15:41:53.562Z,16.76
2022-09-20T15:46:55.241Z,16.71
2022-09-20T15:51:57.288Z,16.65
2022-09-20T15:56:59.072Z,16.58
2022-09-20T16:02:01.511Z,16.48
2022-09-20T16:07:03.720Z,16.43
2022-09-20T16:12:05.577Z,16.40
2022-09-20T16:17:07.295Z,16.31
2022-09-20T16:22:09.167Z,16.27
2022-09-20T16:27:10.911Z,16.23
2022-09-20T16:32:12.543Z,16.13
2022-09-20T16:37:17.314Z,16.13
2022-09-20T16:42:20.660Z,16.07
2022-09-20T16:47:25.020Z,15.97
2022-09-20T16:52:26.782Z,15.80
2022-09-20T16:57:28.883Z,15.75
2022-09-20T17:02:30.607Z,15.70
2022-09-20T17:07:33.709Z,15.65
2022-09-20T17:12:41.519Z,15.69
2022-09-20T17:17:43.209Z,15.58
2022-09-20T17:22:44.881Z,15.55
2022-09-20T17:27:47.963Z,15.53
2022-09-20T17:32:50.532Z,15.51
2022-09-20T17:37:52.115Z,15.46
2022-09-20T17:42:55.196Z,15.44
2022-09-20T17:47:57.600Z,15.42
2022-09-20T17:52:59.137Z,15.38
2022-09-20T17:58:01.128Z,15.36
2022-09-20T18:03:04.857Z,15.29
2022-09-20T18:08:06.803Z,15.16
2022-09-20T18:13:08.463Z,15.19
2022-09-20T18:18:10.592Z,15.13
2022-09-20T18:23:12.311Z,15.13
2022-09-20T18:28:14.092Z,15.04
2022-09-20T18:33:18.532Z,15.02
2022-09-20T18:38:20.723Z,14.98
2022-09-20T18:43:22.323Z,14.98
2022-09-20T18:48:25.907Z,14.94
2022-09-20T18:53:29.942Z,14.93
2022-09-20T18:58:31.713Z,14.89
2022-09-20T19:03:56.127Z,14.86
2022-09-20T19:09:03.339Z,14.83
2022-09-20T19:14:20.722Z,14.83
2022-09-20T19:19:54.696Z,14.77
2022-09-20T19:25:17.385Z,14.80
2022-09-20T19:30:19.608Z,14.80
2022-09-20T19:35:32.232Z,14.72
2022-09-20T19:40:52.264Z,14.69
2022-09-20T19:46:13.412Z,14.76
2022-09-20T19:51:17.101Z,14.65
2022-09-20T19:56:27.727Z,14.60
2022-09-20T20:01:30.251Z,14.60
2022-09-20T20:06:46.072Z,14.58
2022-09-20T20:12:01.964Z,14.40
2022-09-20T20:17:10.217Z,14.43
2022-09-20T20:22:35.898Z,14.41
2022-09-20T20:27:37.552Z,14.37
2022-09-20T20:32:40.533Z,14.34
2022-09-20T20:37:42.094Z,14.31
2022-09-20T20:42:43.900Z,14.15
2022-09-20T20:47:47.067Z,14.15
2022-09-20T20:52:53.032Z,14.10
2022-09-20T20:58:00.123Z,14.10
2022-09-20T21:03:02.765Z,14.13
2022-09-20T21:08:04.543Z,14.11
2022-09-20T21:13:06.306Z,14.11
2022-09-20T21:18:07.885Z,14.11
2022-09-20T21:23:09.463Z,14.05
2022-09-20T21:28:11.156Z,13.98
2022-09-20T21:33:12.790Z,13.91
2022-09-20T21:38:14.615Z,13.92
2022-09-20T21:43:17.224Z,13.82
2022-09-20T21:48:18.785Z,13.80
2022-09-20T21:53:20.431Z,13.79
2022-09-20T21:58:22.001Z,13.71
2022-09-20T22:03:23.632Z,13.75
2022-09-20T22:08:26.606Z,13.74
2022-09-20T22:13:28.191Z,13.76
2022-09-20T22:18:33.406Z,13.67
2022-09-20T22:23:35.822Z,13.71
2022-09-20T22:28:38.141Z,13.68
2022-09-20T22:33:42.271Z,13.65
2022-09-20T22:38:44.820Z,13.50
2022-09-20T22:43:47.045Z,13.49
2022-09-20T22:48:49.086Z,13.56
2022-09-20T22:53:52.706Z,13.58
2022-09-20T22:58:57.026Z,13.64
2022-09-20T23:04:03.215Z,13.62
2022-09-20T23:09:08.061Z,13.58
2022-09-20T23:14:15.153Z,13.54
2022-09-20T23:19:17.372Z,13.48
2022-09-20T23:24:18.899Z,13.40
2022-09-20T23:29:20.798Z,13.44
2022-09-20T23:34:22.463Z,13.40
2022-09-20T23:39:24.059Z,13.39
2022-09-20T23:44:25.739Z,13.30
2022-09-20T23:49:27.599Z,13.27
2022-09-20T23:54:29.196Z,13.29
2022-09-20T23:59:31.648Z,13.20
